createdAt,value
2022-10-17T00:00:01.592Z,14.60
2022-10-17T00:02:29.023Z,14.60
2022-10-17T00:04:56.057Z,14.60
2022-10-17T00:07:28.612Z,14.60
2022-10-17T00:09:58.198Z,14.60
2022-10-17T00:12:30.001Z,14.60
2022-10-17T00:15:02.288Z,14.60
2022-10-17T00:17:32.066Z,14.60
2022-10-17T00:20:06.734Z,14.70
2022-10-17T00:25:10.711Z,14.70
2022-10-17T00:27:41.581Z,14.70
2022-10-17T00:30:14.474Z,14.70
2022-10-17T00:32:46.353Z,14.70
2022-10-17T00:35:18.487Z,14.80
2022-10-17T00:37:49.133Z,14.80
2022-10-17T00:40:19.954Z,14.80
2022-10-17T00:42:47.951Z,14.80
2022-10-17T00:45:23.078Z,14.80
2022-10-17T00:48:00.804Z,14.80
2022-10-17T00:50:30.644Z,14.80
2022-10-17T00:53:04.269Z,14.70
2022-10-17T00:55:34.330Z,14.70
2022-10-17T00:58:03.943Z,14.70
2022-10-17T01:00:31.187Z,14.70
2022-10-17T01:03:00.902Z,14.60
2022-10-17T01:05:35.355Z,14.50
2022-10-17T01:08:05.849Z,14.50
2022-10-17T01:10:47.542Z,14.40
2022-10-17T01:13:23.546Z,14.40
2022-10-17T01:16:14.366Z,14.40
2022-10-17T01:19:12.005Z,14.30
2022-10-17T01:21:48.394Z,14.30
2022-10-17T01:24:17.617Z,14.20
2022-10-17T01:26:59.194Z,14.20
2022-10-17T01:29:38.581Z,14.20
2022-10-17T01:32:36.218Z,14.20
2022-10-17T01:35:17.767Z,14.20
2022-10-17T01:38:09.649Z,14.10
2022-10-17T01:40:45.183Z,14.10
2022-10-17T01:43:29.417Z,14.00
2022-10-17T01:46:06.377Z,13.80
2022-10-17T01:48:39.596Z,13.90
2022-10-17T01:51:26.621Z,13.80
2022-10-17T01:54:00.106Z,13.80
2022-10-17T01:56:33.135Z,13.90
2022-10-17T01:59:12.113Z,13.80
2022-10-17T02:01:42.858Z,13.70
2022-10-17T02:04:11.289Z,13.80
2022-10-17T02:06:43.011Z,13.70
2022-10-17T02:09:21.935Z,13.70
2022-10-17T02:11:58.365Z,13.70
2022-10-17T02:14:39.837Z,13.70
2022-10-17T02:17:44.937Z,13.60
2022-10-17T02:20:33.074Z,13.50
2022-10-17T02:23:11.850Z,13.50
2022-10-17T02:25:59.867Z,13.50
2022-10-17T02:28:52.576Z,13.40
2022-10-17T02:31:29.089Z,13.30
2022-10-17T02:34:01.966Z,13.30
2022-10-17T02:36:38.630Z,13.30
2022-10-17T02:39:15.621Z,13.40
2022-10-17T02:41:47.055Z,13.40
2022-10-17T02:44:20.230Z,13.40
2022-10-17T02:46:56.098Z,13.30
2022-10-17T02:49:31.413Z,13.30
2022-10-17T02:52:12.571Z,13.30
2022-10-17T02:54:51.373Z,13.20
2022-10-17T02:57:36.382Z,13.20
2022-10-17T03:00:07.313Z,13.20
2022-10-17T03:02:48.831Z,13.30
2022-10-17T03:05:28.534Z,13.20
2022-10-17T03:07:56.646Z,13.30
2022-10-17T03:10:25.286Z,13.30
2022-10-17T03:12:55.875Z,13.30
2022-10-17T03:15:23.946Z,13.30
2022-10-17T03:17:53.131Z,13.30
2022-10-17T03:20:22.885Z,13.30
2022-10-17T03:22:54.467Z,13.30
2022-10-17T03:25:22.392Z,13.30
2022-10-17T03:27:55.510Z,13.30
2022-10-17T03:30:28.785Z,13.30
2022-10-17T03:32:58.063Z,13.30
2022-10-17T03:35:28.393Z,13.30
2022-10-17T03:38:00.802Z,13.20
2022-10-17T03:40:29.938Z,13.20
2022-10-17T03:42:59.511Z,13.10
2022-10-17T03:45:31.562Z,13.10
2022-10-17T03:47:59.941Z,13.10
2022-10-17T03:50:32.414Z,13.00
2022-10-17T03:53:05.143Z,13.00
2022-10-17T03:55:34.886Z,12.90
2022-10-17T03:58:02.251Z,13.00
2022-10-17T04:00:31.914Z,13.00
2022-10-17T04:03:03.590Z,13.00
2022-10-17T04:05:34.146Z,13.00
2022-10-17T04:08:11.098Z,13.00
2022-10-17T04:11:07.549Z,12.90
2022-10-17T04:16:13.294Z,12.70
2022-10-17T04:18:47.746Z,12.60
2022-10-17T04:21:15.242Z,12.60
2022-10-17T04:23:42.270Z,12.60
2022-10-17T04:26:22.539Z,12.60
2022-10-17T04:28:50.293Z,12.50
2022-10-17T04:31:18.756Z,12.60
2022-10-17T04:34:05.907Z,12.50
2022-10-17T04:36:36.384Z,12.50
2022-10-17T04:39:05.122Z,12.50
2022-10-17T04:41:33.121Z,12.40
2022-10-17T04:44:02.539Z,12.40
2022-10-17T04:46:34.109Z,12.30
2022-10-17T04:49:03.406Z,12.60
2022-10-17T04:51:34.118Z,12.50
2022-10-17T04:54:23.942Z,12.50
2022-10-17T04:57:00.465Z,12.50
2022-10-17T04:59:29.112Z,12.40
2022-10-17T05:02:11.423Z,12.30
2022-10-17T05:04:40.775Z,12.20
2022-10-17T05:07:09.847Z,12.20
2022-10-17T05:09:58.736Z,12.10
2022-10-17T05:12:26.827Z,12.10
2022-10-17T05:14:56.682Z,12.10
2022-10-17T05:17:26.414Z,12.10
2022-10-17T05:19:53.525Z,12.10
2022-10-17T05:22:23.140Z,12.10
2022-10-17T05:24:52.533Z,12.10
2022-10-17T05:27:24.818Z,12.10
2022-10-17T05:29:51.918Z,12.20
2022-10-17T05:32:25.478Z,12.20
2022-10-17T05:34:54.766Z,12.20
2022-10-17T05:37:29.641Z,12.30
2022-10-17T05:40:02.455Z,12.30
2022-10-17T05:42:31.605Z,12.40
2022-10-17T05:45:05.104Z,12.50
2022-10-17T05:47:33.225Z,12.50
2022-10-17T05:50:05.124Z,12.60
2022-10-17T05:52:47.329Z,12.60
2022-10-17T05:55:18.605Z,12.70
2022-10-17T05:57:48.259Z,12.70
2022-10-17T06:00:20.717Z,12.80
2022-10-17T06:02:58.210Z,12.80
2022-10-17T06:05:29.547Z,12.90
2022-10-17T06:08:01.970Z,13.00
2022-10-17T06:10:32.914Z,12.90
2022-10-17T06:13:03.741Z,13.00
2022-10-17T06:15:33.315Z,13.00
2022-10-17T06:18:08.318Z,13.00
2022-10-17T06:20:41.460Z,13.10
2022-10-17T06:23:18.562Z,13.10
2022-10-17T06:26:06.203Z,13.30
2022-10-17T06:28:36.593Z,13.40
2022-10-17T06:31:13.030Z,13.50
2022-10-17T06:33:43.782Z,13.50
2022-10-17T06:36:16.747Z,13.60
2022-10-17T06:38:45.438Z,13.70
2022-10-17T06:41:25.248Z,13.80
2022-10-17T06:43:54.630Z,13.90
2022-10-17T06:46:44.805Z,14.00
2022-10-17T06:49:18.042Z,14.10
2022-10-17T06:52:19.957Z,14.10
2022-10-17T06:55:10.429Z,14.20
2022-10-17T06:57:53.348Z,14.30
2022-10-17T07:00:43.311Z,14.40
2022-10-17T07:03:12.450Z,14.40
2022-10-17T07:05:52.230Z,14.50
2022-10-17T07:08:19.661Z,14.60
2022-10-17T07:10:47.232Z,14.60
2022-10-17T07:13:17.411Z,14.70
2022-10-17T07:15:44.692Z,14.70
2022-10-17T07:18:14.755Z,14.80
2022-10-17T07:20:55.224Z,14.90
2022-10-17T07:23:23.251Z,15.00
2022-10-17T07:25:52.837Z,15.00
2022-10-17T07:28:22.323Z,15.10
2022-10-17T07:30:53.657Z,15.20
2022-10-17T07:33:26.570Z,15.20
2022-10-17T07:35:58.162Z,15.30
2022-10-17T07:38:25.236Z,15.30
2022-10-17T07:40:59.847Z,15.30
2022-10-17T07:43:30.240Z,15.40
2022-10-17T07:46:06.711Z,15.50
2022-10-17T07:48:34.409Z,15.50
2022-10-17T07:51:09.031Z,15.60
2022-10-17T07:53:47.972Z,15.60
2022-10-17T07:56:18.423Z,15.70
2022-10-17T07:58:48.409Z,15.80
2022-10-17T08:01:16.317Z,15.80
2022-10-17T08:03:48.977Z,15.80
2022-10-17T08:06:19.327Z,15.90
2022-10-17T08:08:48.881Z,16.00
2022-10-17T08:11:22.735Z,16.00
2022-10-17T08:13:53.108Z,16.10
2022-10-17T08:16:20.423Z,16.10
2022-10-17T08:18:49.779Z,16.20
2022-10-17T08:21:19.560Z,16.30
2022-10-17T08:23:51.658Z,16.40
2022-10-17T08:26:25.761Z,16.40
2022-10-17T08:28:55.117Z,16.50
2022-10-17T08:31:25.265Z,16.50
2022-10-17T08:33:57.033Z,16.60
2022-10-17T08:36:24.314Z,16.70
2022-10-17T08:38:53.030Z,16.80
2022-10-17T08:41:26.266Z,16.80
2022-10-17T08:44:05.358Z,16.80
2022-10-17T08:46:39.337Z,16.90
2022-10-17T08:49:23.267Z,16.90
2022-10-17T08:52:07.529Z,17.00
2022-10-17T08:54:51.338Z,17.10
2022-10-17T08:57:21.185Z,17.10
2022-10-17T08:59:55.414Z,17.20
2022-10-17T09:02:37.557Z,17.20
2022-10-17T09:05:44.167Z,17.30
2022-10-17T09:08:20.531Z,17.30
2022-10-17T09:10:57.213Z,17.40
2022-10-17T09:16:34.171Z,17.50
2022-10-17T09:19:09.987Z,17.70
2022-10-17T09:21:55.418Z,17.80
2022-10-17T09:24:43.985Z,17.80
2022-10-17T09:27:32.498Z,17.70
2022-10-17T09:30:46.939Z,17.70
2022-10-17T09:33:35.951Z,17.80
2022-10-17T09:36:20.239Z,18.00
2022-10-17T09:41:50.304Z,18.00
2022-10-17T09:44:23.091Z,18.10
2022-10-17T09:47:27.470Z,18.10
2022-10-17T09:49:54.895Z,18.10
2022-10-17T09:52:47.531Z,18.20
2022-10-17T09:55:26.226Z,18.20
2022-10-17T09:58:02.745Z,18.30
2022-10-17T10:00:35.945Z,18.30
2022-10-17T10:03:20.753Z,18.40
2022-10-17T10:06:00.036Z,18.40
2022-10-17T10:08:36.873Z,18.40
2022-10-17T10:11:13.476Z,18.50
2022-10-17T10:13:43.863Z,18.50
2022-10-17T10:16:32.982Z,18.60
2022-10-17T10:19:21.775Z,18.60
2022-10-17T10:22:03.760Z,18.60
2022-10-17T10:24:32.080Z,18.70
2022-10-17T10:27:02.919Z,18.70
2022-10-17T10:29:33.143Z,18.80
2022-10-17T10:32:24.108Z,18.90
2022-10-17T10:34:55.978Z,18.90
2022-10-17T10:37:29.705Z,18.90
2022-10-17T10:40:38.665Z,19.00
2022-10-17T10:43:20.079Z,19.10
2022-10-17T10:45:48.692Z,19.10
2022-10-17T10:48:49.342Z,19.20
2022-10-17T10:51:22.017Z,19.30
2022-10-17T10:54:00.001Z,19.30
2022-10-17T10:56:35.760Z,19.30
2022-10-17T10:59:09.071Z,19.40
2022-10-17T11:01:45.816Z,19.40
2022-10-17T11:04:26.098Z,19.50
2022-10-17T11:07:00.789Z,19.50
2022-10-17T11:09:47.886Z,19.60
2022-10-17T11:12:27.969Z,19.60
2022-10-17T11:14:55.232Z,19.70
2022-10-17T11:17:50.375Z,19.70
2022-10-17T11:20:53.442Z,19.70
2022-10-17T11:23:32.901Z,19.70
2022-10-17T11:26:08.775Z,19.70
2022-10-17T11:28:38.393Z,19.70
2022-10-17T11:31:15.981Z,19.70
2022-10-17T11:33:53.605Z,19.70
2022-10-17T11:36:27.523Z,19.70
2022-10-17T11:39:03.222Z,19.70
2022-10-17T11:42:09.892Z,19.70
2022-10-17T11:44:41.692Z,19.70
2022-10-17T11:47:18.126Z,19.80
2022-10-17T11:49:51.648Z,19.80
2022-10-17T11:52:44.394Z,19.80
2022-10-17T11:55:23.930Z,19.90
2022-10-17T11:58:25.304Z,19.90
2022-10-17T12:01:32.559Z,19.90
2022-10-17T12:04:22.314Z,20.00
2022-10-17T12:07:23.432Z,20.20
2022-10-17T12:09:57.562Z,20.30
2022-10-17T12:12:31.223Z,20.30
2022-10-17T12:15:31.614Z,20.30
2022-10-17T12:18:05.327Z,20.40
2022-10-17T12:20:37.946Z,20.40
2022-10-17T12:23:11.435Z,20.50
2022-10-17T12:25:55.048Z,20.50
2022-10-17T12:28:34.018Z,20.50
2022-10-17T12:31:15.832Z,20.60
2022-10-17T12:33:51.426Z,20.60
2022-10-17T12:36:22.121Z,21.40
2022-10-17T12:39:01.655Z,20.80
2022-10-17T12:41:42.231Z,20.70
2022-10-17T12:44:15.201Z,20.70
2022-10-17T12:47:06.113Z,20.70
2022-10-17T12:49:47.828Z,20.70
2022-10-17T12:52:57.957Z,20.70
2022-10-17T12:55:26.329Z,20.80
2022-10-17T12:58:02.892Z,20.80
2022-10-17T13:01:11.646Z,20.80
2022-10-17T13:03:46.339Z,20.80
2022-10-17T13:06:32.172Z,20.80
2022-10-17T13:09:17.811Z,20.80
2022-10-17T13:11:45.252Z,20.80
2022-10-17T13:14:16.412Z,20.80
2022-10-17T13:16:55.539Z,20.80
2022-10-17T13:19:28.868Z,20.80
2022-10-17T13:22:06.795Z,20.80
2022-10-17T13:24:40.303Z,20.80
2022-10-17T13:27:23.735Z,20.90
2022-10-17T13:29:50.953Z,20.90
2022-10-17T13:32:22.667Z,20.90
2022-10-17T13:35:06.639Z,20.90
2022-10-17T13:37:37.048Z,20.90
2022-10-17T13:40:17.564Z,20.90
2022-10-17T13:42:55.602Z,20.90
2022-10-17T13:45:34.820Z,20.90
2022-10-17T13:48:08.327Z,20.90
2022-10-17T13:50:44.465Z,20.90
2022-10-17T13:53:31.298Z,20.80
2022-10-17T13:56:27.786Z,20.80
2022-10-17T13:59:00.048Z,20.70
2022-10-17T14:01:30.189Z,20.70
2022-10-17T14:04:09.231Z,20.60
2022-10-17T14:06:46.234Z,20.60
2022-10-17T14:09:25.071Z,20.60
2022-10-17T14:12:13.409Z,20.50
2022-10-17T14:15:09.228Z,20.50
2022-10-17T14:17:38.497Z,20.50
2022-10-17T14:23:48.026Z,20.50
2022-10-17T14:26:19.685Z,20.40
2022-10-17T14:29:02.613Z,20.40
2022-10-17T14:31:35.483Z,20.40
2022-10-17T14:34:07.002Z,20.50
2022-10-17T14:36:41.996Z,20.40
2022-10-17T14:39:20.438Z,20.40
2022-10-17T14:41:53.659Z,20.40
2022-10-17T14:44:25.044Z,20.40
2022-10-17T14:47:38.007Z,20.40
2022-10-17T14:50:10.518Z,20.40
2022-10-17T14:52:39.020Z,20.40
2022-10-17T14:55:27.265Z,20.40
2022-10-17T14:57:57.379Z,20.30
2022-10-17T15:00:25.246Z,20.30
2022-10-17T15:02:58.200Z,20.20
2022-10-17T15:05:29.790Z,20.20
2022-10-17T15:07:57.103Z,20.20
2022-10-17T15:10:34.374Z,20.10
2022-10-17T15:15:53.766Z,20.00
2022-10-17T15:18:23.467Z,19.90
2022-10-17T15:20:59.531Z,19.90
2022-10-17T15:23:38.327Z,19.80
2022-10-17T15:26:21.472Z,19.70
2022-10-17T15:28:54.434Z,19.60
2022-10-17T15:31:27.847Z,19.60
2022-10-17T15:33:57.853Z,19.50
2022-10-17T15:36:29.239Z,19.40
2022-10-17T15:39:01.572Z,19.30
2022-10-17T15:41:31.541Z,19.20
2022-10-17T15:44:01.398Z,19.10
2022-10-17T15:46:35.987Z,19.00
2022-10-17T15:49:10.473Z,19.00
2022-10-17T15:51:40.149Z,18.80
2022-10-17T15:54:10.489Z,18.80
2022-10-17T15:56:40.936Z,18.70
2022-10-17T15:59:14.217Z,18.60
2022-10-17T16:01:46.712Z,18.60
2022-10-17T16:04:18.763Z,18.50
2022-10-17T16:06:45.863Z,18.40
2022-10-17T16:09:19.998Z,18.40
2022-10-17T16:11:52.309Z,18.30
2022-10-17T16:14:21.839Z,18.20
2022-10-17T16:16:49.300Z,18.20
2022-10-17T16:19:21.737Z,18.10
2022-10-17T16:21:48.998Z,18.10
2022-10-17T16:24:21.246Z,18.00
2022-10-17T16:26:48.404Z,17.90
2022-10-17T16:29:20.505Z,17.90
2022-10-17T16:31:47.571Z,17.90
2022-10-17T16:34:18.170Z,17.80
2022-10-17T16:36:47.781Z,17.80
2022-10-17T16:39:15.306Z,17.70
2022-10-17T16:41:44.612Z,17.70
2022-10-17T16:44:15.882Z,17.60
2022-10-17T16:46:45.874Z,17.60
2022-10-17T16:49:15.964Z,17.60
2022-10-17T16:51:46.043Z,17.50
2022-10-17T16:54:15.866Z,17.40
2022-10-17T16:56:42.939Z,17.30
2022-10-17T16:59:15.228Z,17.20
2022-10-17T17:01:44.720Z,17.30
2022-10-17T17:04:16.602Z,17.20
2022-10-17T17:09:18.780Z,17.20
2022-10-17T17:11:48.255Z,17.10
2022-10-17T17:14:17.922Z,17.00
2022-10-17T17:16:50.054Z,16.90
2022-10-17T17:19:18.670Z,16.90
2022-10-17T17:21:50.719Z,16.90
2022-10-17T17:24:23.992Z,16.90
2022-10-17T17:26:53.546Z,16.70
2022-10-17T17:29:22.406Z,16.70
2022-10-17T17:31:51.995Z,16.70
2022-10-17T17:34:21.659Z,16.70
2022-10-17T17:36:48.823Z,16.60
2022-10-17T17:39:18.324Z,16.60
2022-10-17T17:41:45.741Z,16.50
2022-10-17T17:44:16.995Z,16.50
2022-10-17T17:46:46.611Z,16.50
2022-10-17T17:49:16.598Z,16.40
2022-10-17T17:51:46.628Z,16.40
2022-10-17T17:54:18.782Z,16.40
2022-10-17T17:56:45.862Z,16.30
2022-10-17T17:59:15.379Z,16.30
2022-10-17T18:01:45.861Z,16.30
2022-10-17T18:04:16.483Z,16.20
2022-10-17T18:06:46.437Z,16.20
2022-10-17T18:09:17.979Z,16.10
2022-10-17T18:11:47.471Z,16.10
2022-10-17T18:14:19.074Z,16.10
2022-10-17T18:16:48.453Z,16.00
2022-10-17T18:19:23.926Z,16.00
2022-10-17T18:21:55.917Z,16.00
2022-10-17T18:24:26.046Z,15.90
2022-10-17T18:26:59.956Z,15.90
2022-10-17T18:29:29.890Z,15.80
2022-10-17T18:31:59.548Z,15.80
2022-10-17T18:34:29.956Z,15.80
2022-10-17T18:36:59.987Z,15.80
2022-10-17T18:39:27.236Z,15.80
2022-10-17T18:41:54.607Z,15.70
2022-10-17T18:44:24.292Z,15.70
2022-10-17T18:46:53.622Z,15.70
2022-10-17T18:49:25.031Z,15.70
2022-10-17T18:51:52.697Z,15.70
2022-10-17T18:54:22.038Z,15.60
2022-10-17T18:56:54.288Z,15.60
2022-10-17T18:59:22.077Z,15.60
2022-10-17T19:01:49.229Z,15.50
2022-10-17T19:04:18.719Z,15.40
2022-10-17T19:06:45.993Z,15.40
2022-10-17T19:09:14.492Z,15.40
2022-10-17T19:11:42.189Z,15.40
2022-10-17T19:14:15.148Z,15.40
2022-10-17T19:16:48.401Z,15.40
2022-10-17T19:19:22.354Z,15.40
2022-10-17T19:21:50.196Z,15.40
2022-10-17T19:24:24.043Z,15.40
2022-10-17T19:26:56.051Z,15.40
2022-10-17T19:29:26.396Z,15.40
2022-10-17T19:31:58.058Z,15.40
2022-10-17T19:34:28.295Z,15.30
2022-10-17T19:36:55.877Z,15.40
2022-10-17T19:39:26.549Z,15.30
2022-10-17T19:41:56.234Z,15.30
2022-10-17T19:44:28.623Z,15.30
2022-10-17T19:46:55.781Z,15.20
2022-10-17T19:49:27.466Z,15.20
2022-10-17T19:51:59.135Z,15.20
2022-10-17T19:54:26.535Z,15.20
2022-10-17T19:56:56.041Z,15.20
2022-10-17T20:01:55.367Z,15.30
2022-10-17T20:04:27.054Z,15.30
2022-10-17T20:06:59.794Z,15.30
2022-10-17T20:09:27.145Z,15.30
2022-10-17T20:11:56.320Z,15.30
2022-10-17T20:14:25.846Z,15.30
2022-10-17T20:16:55.481Z,15.30
2022-10-17T20:19:22.805Z,15.30
2022-10-17T20:21:54.690Z,15.30
2022-10-17T20:24:21.960Z,15.30
2022-10-17T20:26:51.456Z,15.30
2022-10-17T20:29:24.079Z,15.30
2022-10-17T20:31:53.538Z,15.30
2022-10-17T20:34:23.157Z,15.30
2022-10-17T20:36:50.703Z,15.30
2022-10-17T20:39:23.502Z,15.30
2022-10-17T20:41:50.531Z,15.40
2022-10-17T20:44:20.048Z,15.40
2022-10-17T20:47:02.205Z,15.40
2022-10-17T20:49:33.095Z,15.40
2022-10-17T20:52:02.429Z,15.50
2022-10-17T20:54:29.876Z,15.50
2022-10-17T20:57:02.485Z,15.60
2022-10-17T20:59:34.260Z,15.60
2022-10-17T21:02:04.944Z,15.60
2022-10-17T21:04:45.890Z,15.70
2022-10-17T21:07:16.281Z,15.70
2022-10-17T21:09:43.670Z,15.70
2022-10-17T21:12:10.863Z,15.70
2022-10-17T21:14:38.210Z,15.80
2022-10-17T21:17:08.043Z,15.80
2022-10-17T21:19:39.256Z,15.80
2022-10-17T21:22:08.563Z,15.80
2022-10-17T21:24:38.794Z,15.90
2022-10-17T21:27:17.974Z,15.90
2022-10-17T21:29:45.488Z,15.90
2022-10-17T21:32:25.168Z,15.90
2022-10-17T21:34:59.933Z,15.90
2022-10-17T21:37:27.267Z,15.80
2022-10-17T21:39:54.470Z,15.80
2022-10-17T21:42:26.370Z,15.80
2022-10-17T21:44:59.055Z,15.80
2022-10-17T21:47:30.681Z,15.70
2022-10-17T21:50:00.602Z,15.70
2022-10-17T21:52:35.548Z,15.70
2022-10-17T21:55:02.826Z,15.70
2022-10-17T21:57:30.271Z,15.70
2022-10-17T21:59:59.952Z,15.70
2022-10-17T22:02:29.968Z,15.60
2022-10-17T22:04:57.486Z,15.60
2022-10-17T22:07:24.755Z,15.60
2022-10-17T22:09:54.047Z,15.60
2022-10-17T22:12:21.729Z,15.60
2022-10-17T22:14:49.005Z,15.60
2022-10-17T22:17:16.037Z,15.50
2022-10-17T22:19:47.159Z,15.60
2022-10-17T22:22:14.315Z,15.50
2022-10-17T22:24:41.705Z,15.50
2022-10-17T22:27:10.365Z,15.50
2022-10-17T22:29:39.582Z,15.50
2022-10-17T22:32:06.623Z,15.40
2022-10-17T22:34:39.446Z,15.40
2022-10-17T22:37:06.556Z,15.40
2022-10-17T22:39:33.784Z,15.40
2022-10-17T22:42:01.005Z,15.40
2022-10-17T22:44:37.906Z,15.40
2022-10-17T22:47:05.059Z,15.30
2022-10-17T22:49:35.345Z,15.30
2022-10-17T22:52:04.513Z,15.30
2022-10-17T22:54:31.902Z,15.30
2022-10-17T22:57:03.473Z,15.30
2022-10-17T22:59:35.972Z,15.30
2022-10-17T23:02:05.380Z,15.30
2022-10-17T23:04:38.149Z,15.30
2022-10-17T23:07:11.321Z,15.20
2022-10-17T23:09:38.842Z,15.20
2022-10-17T23:12:10.466Z,15.20
2022-10-17T23:14:43.201Z,15.10
2022-10-17T23:17:13.056Z,15.10
2022-10-17T23:19:40.548Z,15.10
2022-10-17T23:22:10.317Z,15.10
2022-10-17T23:24:37.714Z,15.00
2022-10-17T23:27:04.778Z,15.00
2022-10-17T23:29:33.539Z,15.00
2022-10-17T23:32:03.295Z,15.00
2022-10-17T23:34:32.771Z,15.00
2022-10-17T23:36:59.805Z,15.00
2022-10-17T23:39:31.886Z,14.90
2022-10-17T23:41:58.906Z,14.90
2022-10-17T23:44:28.361Z,14.90
2022-10-17T23:46:58.126Z,14.90
2022-10-17T23:49:25.437Z,14.90
2022-10-17T23:51:52.442Z,14.80
2022-10-17T23:54:21.965Z,14.80
2022-10-17T23:56:54.592Z,14.80
2022-10-17T23:59:26.215Z,14.80
